Archival Weather

Republic

Farmingdale, New York (KFRG)

Report from: Wednesday, February 14, 2024 2:53 AM EST
Current time: Friday, June 14, 2024 9:44 AM EDT

Current weather – Weather history – Daily summaries
Weather forecast

Temperature1.7°C (35.1°F)
Wind chill-3.1°C (26.4°F)
Dew point-5.6°C (21.9°F)
Winds 11 kts (5.7 m/s, 12.7 mph) West-Northwest (300°)
Wind gusts 24 kts (12.3 m/s, 27.6 mph)
Peak wind 26 kts (13.4 m/s, 29.9 mph) Northwest (310°) at 07:36
Visibility10 mi. (16.1 km)
Clouds Sky clear
Altimeter29.84 in.Hg (1010 mB)
Relative humidity58 %
Density altitude-1,453 ft. (-443 m)
Sea-level pressure101.0 kPa (1010 mB, 29.83 in.Hg)
Remarks Fully automated report
Automated weather observing station without precipitation discriminator
Freezing rain sensor not operating
Flight conditions Visual Meteorological Conditions
Raw dataKFRG 140753Z AUTO 30011G24KT 10SM CLR 02/M06 A2984 RMK AO1 PK WND 31026/0736 SLP103 T00171056 FZRANO
An error has occurred. This application may no longer respond until reloaded. Reload 🗙